sensor_id;sensor_type;location;lat;lon;timestamp;P1;durP1;ratioP1;P2;durP2;ratioP2
19879;SDS011;10102;50.828;4.416;2022-12-13T00:01:46;21.40;;;11.30;;
19879;SDS011;10102;50.828;4.416;2022-12-13T00:04:14;22.37;;;11.33;;
19879;SDS011;10102;50.828;4.416;2022-12-13T00:06:40;19.93;;;11.13;;
19879;SDS011;10102;50.828;4.416;2022-12-13T00:09:06;20.90;;;11.20;;
19879;SDS011;10102;50.828;4.416;2022-12-13T00:11:32;21.77;;;11.00;;
19879;SDS011;10102;50.828;4.416;2022-12-13T00:13:57;23.27;;;11.10;;
19879;SDS011;10102;50.828;4.416;2022-12-13T00:16:23;26.67;;;11.00;;
19879;SDS011;10102;50.828;4.416;2022-12-13T00:18:52;19.33;;;10.70;;
19879;SDS011;10102;50.828;4.416;2022-12-13T00:21:20;24.17;;;10.90;;
19879;SDS011;10102;50.828;4.416;2022-12-13T00:23:46;22.37;;;11.13;;
19879;SDS011;10102;50.828;4.416;2022-12-13T00:26:14;21.60;;;10.73;;
19879;SDS011;10102;50.828;4.416;2022-12-13T00:28:41;24.87;;;11.47;;
19879;SDS011;10102;50.828;4.416;2022-12-13T00:31:09;24.77;;;11.23;;
19879;SDS011;10102;50.828;4.416;2022-12-13T00:33:36;19.90;;;10.23;;
19879;SDS011;10102;50.828;4.416;2022-12-13T00:36:03;23.27;;;11.10;;
19879;SDS011;10102;50.828;4.416;2022-12-13T00:38:30;22.90;;;10.67;;
19879;SDS011;10102;50.828;4.416;2022-12-13T00:40:56;23.57;;;10.87;;
19879;SDS011;10102;50.828;4.416;2022-12-13T00:43:22;23.43;;;11.60;;
19879;SDS011;10102;50.828;4.416;2022-12-13T00:45:48;20.07;;;11.03;;
19879;SDS011;10102;50.828;4.416;2022-12-13T00:48:13;26.00;;;10.97;;
19879;SDS011;10102;50.828;4.416;2022-12-13T00:50:39;22.07;;;11.50;;
19879;SDS011;10102;50.828;4.416;2022-12-13T00:53:05;20.60;;;10.37;;
19879;SDS011;10102;50.828;4.416;2022-12-13T00:55:31;26.27;;;11.63;;
19879;SDS011;10102;50.828;4.416;2022-12-13T00:57:57;24.27;;;11.07;;
19879;SDS011;10102;50.828;4.416;2022-12-13T01:00:23;20.60;;;9.47;;
19879;SDS011;10102;50.828;4.416;2022-12-13T01:02:50;25.83;;;10.83;;
19879;SDS011;10102;50.828;4.416;2022-12-13T01:05:17;22.50;;;10.37;;
19879;SDS011;10102;50.828;4.416;2022-12-13T01:07:43;21.43;;;10.90;;
19879;SDS011;10102;50.828;4.416;2022-12-13T01:10:09;21.10;;;11.63;;
19879;SDS011;10102;50.828;4.416;2022-12-13T01:12:36;23.23;;;11.23;;
19879;SDS011;10102;50.828;4.416;2022-12-13T01:15:02;22.53;;;10.13;;
19879;SDS011;10102;50.828;4.416;2022-12-13T01:17:28;20.17;;;10.50;;
19879;SDS011;10102;50.828;4.416;2022-12-13T01:19:54;20.07;;;11.40;;
19879;SDS011;10102;50.828;4.416;2022-12-13T01:22:21;25.13;;;10.63;;
19879;SDS011;10102;50.828;4.416;2022-12-13T01:24:47;21.13;;;11.37;;
19879;SDS011;10102;50.828;4.416;2022-12-13T01:27:12;22.33;;;9.83;;
19879;SDS011;10102;50.828;4.416;2022-12-13T01:29:38;18.87;;;10.33;;
19879;SDS011;10102;50.828;4.416;2022-12-13T01:32:04;20.87;;;10.70;;
19879;SDS011;10102;50.828;4.416;2022-12-13T01:34:30;24.00;;;10.83;;
19879;SDS011;10102;50.828;4.416;2022-12-13T01:36:56;22.20;;;10.77;;
19879;SDS011;10102;50.828;4.416;2022-12-13T01:39:22;21.83;;;10.53;;
19879;SDS011;10102;50.828;4.416;2022-12-13T01:41:49;24.80;;;11.23;;
19879;SDS011;10102;50.828;4.416;2022-12-13T01:47:22;19.43;;;10.30;;
19879;SDS011;10102;50.828;4.416;2022-12-13T01:49:52;20.77;;;10.90;;
19879;SDS011;10102;50.828;4.416;2022-12-13T01:52:22;24.00;;;10.57;;
19879;SDS011;10102;50.828;4.416;2022-12-13T01:54:49;25.37;;;10.47;;
19879;SDS011;10102;50.828;4.416;2022-12-13T01:57:17;21.90;;;11.17;;
19879;SDS011;10102;50.828;4.416;2022-12-13T01:59:45;21.97;;;11.20;;
19879;SDS011;10102;50.828;4.416;2022-12-13T02:02:14;22.47;;;11.03;;
19879;SDS011;10102;50.828;4.416;2022-12-13T02:04:44;24.20;;;11.20;;
19879;SDS011;10102;50.828;4.416;2022-12-13T02:07:20;24.33;;;11.47;;
19879;SDS011;10102;50.828;4.416;2022-12-13T02:09:54;23.73;;;11.73;;
19879;SDS011;10102;50.828;4.416;2022-12-13T02:12:23;21.87;;;10.90;;
19879;SDS011;10102;50.828;4.416;2022-12-13T02:14:53;23.00;;;11.40;;
19879;SDS011;10102;50.828;4.416;2022-12-13T02:28:43;26.13;;;11.67;;
19879;SDS011;10102;50.828;4.416;2022-12-13T02:31:36;22.40;;;12.00;;
19879;SDS011;10102;50.828;4.416;2022-12-13T02:34:15;21.97;;;11.80;;
19879;SDS011;10102;50.828;4.416;2022-12-13T02:39:29;23.03;;;11.80;;
19879;SDS011;10102;50.828;4.416;2022-12-13T02:41:59;23.83;;;11.63;;
19879;SDS011;10102;50.828;4.416;2022-12-13T02:44:56;20.47;;;11.80;;
19879;SDS011;10102;50.828;4.416;2022-12-13T02:47:26;22.53;;;11.60;;
19879;SDS011;10102;50.828;4.416;2022-12-13T02:49:55;24.17;;;12.37;;
19879;SDS011;10102;50.828;4.416;2022-12-13T02:52:25;25.13;;;12.63;;
19879;SDS011;10102;50.828;4.416;2022-12-13T02:55:05;28.03;;;13.03;;
19879;SDS011;10102;50.828;4.416;2022-12-13T02:57:35;19.27;;;11.30;;
19879;SDS011;10102;50.828;4.416;2022-12-13T03:00:07;28.20;;;12.73;;
19879;SDS011;10102;50.828;4.416;2022-12-13T03:08:44;20.07;;;11.63;;
19879;SDS011;10102;50.828;4.416;2022-12-13T03:14:44;23.43;;;12.03;;
19879;SDS011;10102;50.828;4.416;2022-12-13T03:17:19;25.00;;;11.93;;
19879;SDS011;10102;50.828;4.416;2022-12-13T03:19:49;22.77;;;11.67;;
19879;SDS011;10102;50.828;4.416;2022-12-13T03:22:16;21.40;;;12.00;;
19879;SDS011;10102;50.828;4.416;2022-12-13T03:24:43;25.10;;;11.90;;
19879;SDS011;10102;50.828;4.416;2022-12-13T03:27:10;21.40;;;10.60;;
19879;SDS011;10102;50.828;4.416;2022-12-13T03:29:36;27.00;;;12.20;;
19879;SDS011;10102;50.828;4.416;2022-12-13T03:32:01;23.33;;;11.20;;
19879;SDS011;10102;50.828;4.416;2022-12-13T03:34:28;23.63;;;12.47;;
19879;SDS011;10102;50.828;4.416;2022-12-13T03:36:53;23.97;;;11.40;;
19879;SDS011;10102;50.828;4.416;2022-12-13T03:39:20;24.10;;;11.43;;
19879;SDS011;10102;50.828;4.416;2022-12-13T03:41:47;18.23;;;11.33;;
19879;SDS011;10102;50.828;4.416;2022-12-13T03:44:13;23.23;;;11.30;;
19879;SDS011;10102;50.828;4.416;2022-12-13T03:46:39;21.30;;;10.30;;
19879;SDS011;10102;50.828;4.416;2022-12-13T03:49:05;19.80;;;11.63;;
19879;SDS011;10102;50.828;4.416;2022-12-13T03:51:30;23.83;;;10.73;;
19879;SDS011;10102;50.828;4.416;2022-12-13T03:53:56;22.37;;;10.90;;
19879;SDS011;10102;50.828;4.416;2022-12-13T03:56:21;19.80;;;11.03;;
19879;SDS011;10102;50.828;4.416;2022-12-13T03:58:47;18.93;;;10.97;;
19879;SDS011;10102;50.828;4.416;2022-12-13T04:01:14;23.57;;;11.73;;
19879;SDS011;10102;50.828;4.416;2022-12-13T04:03:41;21.67;;;11.03;;
19879;SDS011;10102;50.828;4.416;2022-12-13T04:06:09;22.13;;;11.53;;
19879;SDS011;10102;50.828;4.416;2022-12-13T04:08:35;23.80;;;11.00;;
19879;SDS011;10102;50.828;4.416;2022-12-13T04:11:02;21.10;;;11.53;;
19879;SDS011;10102;50.828;4.416;2022-12-13T04:13:46;19.27;;;10.77;;
19879;SDS011;10102;50.828;4.416;2022-12-13T04:16:12;23.83;;;11.87;;
19879;SDS011;10102;50.828;4.416;2022-12-13T04:18:38;20.93;;;10.80;;
19879;SDS011;10102;50.828;4.416;2022-12-13T04:21:03;21.17;;;10.37;;
19879;SDS011;10102;50.828;4.416;2022-12-13T04:23:29;21.73;;;11.20;;
19879;SDS011;10102;50.828;4.416;2022-12-13T04:25:55;21.63;;;11.37;;
19879;SDS011;10102;50.828;4.416;2022-12-13T04:28:22;21.73;;;11.27;;
19879;SDS011;10102;50.828;4.416;2022-12-13T04:30:47;25.97;;;12.17;;
19879;SDS011;10102;50.828;4.416;2022-12-13T04:33:13;20.67;;;11.60;;
19879;SDS011;10102;50.828;4.416;2022-12-13T04:35:39;22.00;;;12.33;;
19879;SDS011;10102;50.828;4.416;2022-12-13T04:38:04;25.70;;;11.07;;
19879;SDS011;10102;50.828;4.416;2022-12-13T04:40:30;24.17;;;11.93;;
19879;SDS011;10102;50.828;4.416;2022-12-13T04:42:56;26.87;;;11.70;;
19879;SDS011;10102;50.828;4.416;2022-12-13T04:45:23;28.50;;;13.40;;
19879;SDS011;10102;50.828;4.416;2022-12-13T04:47:50;24.27;;;12.00;;
19879;SDS011;10102;50.828;4.416;2022-12-13T04:50:16;27.93;;;11.27;;
19879;SDS011;10102;50.828;4.416;2022-12-13T04:52:43;20.80;;;11.03;;
19879;SDS011;10102;50.828;4.416;2022-12-13T04:55:09;24.17;;;11.53;;
19879;SDS011;10102;50.828;4.416;2022-12-13T04:57:35;21.90;;;11.47;;
19879;SDS011;10102;50.828;4.416;2022-12-13T05:00:02;23.30;;;11.70;;
19879;SDS011;10102;50.828;4.416;2022-12-13T05:02:29;24.90;;;11.90;;
19879;SDS011;10102;50.828;4.416;2022-12-13T05:04:55;22.63;;;11.17;;
19879;SDS011;10102;50.828;4.416;2022-12-13T05:07:20;25.77;;;12.03;;
19879;SDS011;10102;50.828;4.416;2022-12-13T05:09:46;23.70;;;12.30;;
19879;SDS011;10102;50.828;4.416;2022-12-13T05:12:12;23.30;;;10.93;;
19879;SDS011;10102;50.828;4.416;2022-12-13T05:14:38;24.47;;;11.20;;
19879;SDS011;10102;50.828;4.416;2022-12-13T05:17:04;26.23;;;12.33;;
19879;SDS011;10102;50.828;4.416;2022-12-13T05:19:29;23.87;;;12.17;;
19879;SDS011;10102;50.828;4.416;2022-12-13T05:21:55;24.17;;;11.47;;
19879;SDS011;10102;50.828;4.416;2022-12-13T05:24:20;21.23;;;11.40;;
19879;SDS011;10102;50.828;4.416;2022-12-13T05:26:46;25.00;;;11.57;;
19879;SDS011;10102;50.828;4.416;2022-12-13T05:29:12;25.50;;;11.90;;
19879;SDS011;10102;50.828;4.416;2022-12-13T05:31:38;21.23;;;11.30;;
19879;SDS011;10102;50.828;4.416;2022-12-13T05:34:04;27.30;;;11.93;;
19879;SDS011;10102;50.828;4.416;2022-12-13T05:36:30;26.77;;;12.97;;
19879;SDS011;10102;50.828;4.416;2022-12-13T05:38:55;20.33;;;12.13;;
19879;SDS011;10102;50.828;4.416;2022-12-13T05:41:21;22.07;;;11.23;;
19879;SDS011;10102;50.828;4.416;2022-12-13T05:43:49;22.47;;;12.50;;
19879;SDS011;10102;50.828;4.416;2022-12-13T05:46:15;26.87;;;12.63;;
19879;SDS011;10102;50.828;4.416;2022-12-13T05:48:41;23.70;;;11.43;;
19879;SDS011;10102;50.828;4.416;2022-12-13T05:51:07;21.30;;;11.23;;
19879;SDS011;10102;50.828;4.416;2022-12-13T05:53:33;24.13;;;12.07;;
19879;SDS011;10102;50.828;4.416;2022-12-13T05:56:00;21.43;;;11.97;;
19879;SDS011;10102;50.828;4.416;2022-12-13T05:58:26;23.20;;;12.07;;
19879;SDS011;10102;50.828;4.416;2022-12-13T06:00:52;21.47;;;11.73;;
19879;SDS011;10102;50.828;4.416;2022-12-13T06:03:18;22.70;;;11.50;;
19879;SDS011;10102;50.828;4.416;2022-12-13T06:05:43;20.37;;;11.87;;
19879;SDS011;10102;50.828;4.416;2022-12-13T06:08:09;22.33;;;11.73;;
19879;SDS011;10102;50.828;4.416;2022-12-13T06:10:36;22.20;;;11.67;;
19879;SDS011;10102;50.828;4.416;2022-12-13T06:13:03;24.97;;;11.97;;
19879;SDS011;10102;50.828;4.416;2022-12-13T06:15:29;25.07;;;12.23;;
19879;SDS011;10102;50.828;4.416;2022-12-13T06:22:54;24.90;;;11.83;;
19879;SDS011;10102;50.828;4.416;2022-12-13T06:25:20;20.30;;;11.27;;
19879;SDS011;10102;50.828;4.416;2022-12-13T06:27:45;22.03;;;12.30;;
19879;SDS011;10102;50.828;4.416;2022-12-13T06:30:12;26.70;;;12.80;;
19879;SDS011;10102;50.828;4.416;2022-12-13T06:32:38;28.23;;;12.67;;
19879;SDS011;10102;50.828;4.416;2022-12-13T06:35:04;26.53;;;13.53;;
19879;SDS011;10102;50.828;4.416;2022-12-13T06:37:29;26.03;;;14.17;;
19879;SDS011;10102;50.828;4.416;2022-12-13T06:39:55;28.83;;;13.83;;
19879;SDS011;10102;50.828;4.416;2022-12-13T06:42:22;29.03;;;13.90;;
19879;SDS011;10102;50.828;4.416;2022-12-13T06:44:47;28.13;;;12.70;;
19879;SDS011;10102;50.828;4.416;2022-12-13T06:47:15;23.07;;;13.43;;
19879;SDS011;10102;50.828;4.416;2022-12-13T06:49:44;27.03;;;12.80;;
19879;SDS011;10102;50.828;4.416;2022-12-13T06:52:10;25.80;;;12.83;;
19879;SDS011;10102;50.828;4.416;2022-12-13T06:54:37;25.87;;;12.83;;
19879;SDS011;10102;50.828;4.416;2022-12-13T06:57:03;26.77;;;13.00;;
19879;SDS011;10102;50.828;4.416;2022-12-13T06:59:29;22.63;;;12.67;;
19879;SDS011;10102;50.828;4.416;2022-12-13T07:01:55;30.33;;;13.97;;
19879;SDS011;10102;50.828;4.416;2022-12-13T07:04:21;25.63;;;12.83;;
19879;SDS011;10102;50.828;4.416;2022-12-13T07:06:48;25.63;;;12.73;;
19879;SDS011;10102;50.828;4.416;2022-12-13T07:09:19;24.77;;;13.50;;
19879;SDS011;10102;50.828;4.416;2022-12-13T07:11:46;23.27;;;13.30;;
19879;SDS011;10102;50.828;4.416;2022-12-13T07:14:18;29.50;;;14.23;;
19879;SDS011;10102;50.828;4.416;2022-12-13T07:16:44;29.67;;;12.47;;
19879;SDS011;10102;50.828;4.416;2022-12-13T07:19:09;28.60;;;13.93;;
19879;SDS011;10102;50.828;4.416;2022-12-13T07:21:35;24.10;;;11.93;;
19879;SDS011;10102;50.828;4.416;2022-12-13T07:24:03;22.47;;;13.23;;
19879;SDS011;10102;50.828;4.416;2022-12-13T07:26:29;26.60;;;13.47;;
19879;SDS011;10102;50.828;4.416;2022-12-13T07:28:55;28.90;;;13.63;;
19879;SDS011;10102;50.828;4.416;2022-12-13T07:31:24;22.17;;;12.63;;
19879;SDS011;10102;50.828;4.416;2022-12-13T07:33:58;27.17;;;13.03;;
19879;SDS011;10102;50.828;4.416;2022-12-13T07:36:24;25.80;;;13.33;;
19879;SDS011;10102;50.828;4.416;2022-12-13T07:38:53;30.27;;;13.83;;
19879;SDS011;10102;50.828;4.416;2022-12-13T07:41:21;31.47;;;13.93;;
19879;SDS011;10102;50.828;4.416;2022-12-13T07:43:48;28.13;;;13.20;;
19879;SDS011;10102;50.828;4.416;2022-12-13T07:46:14;29.10;;;12.57;;
19879;SDS011;10102;50.828;4.416;2022-12-13T07:48:39;34.83;;;13.40;;
19879;SDS011;10102;50.828;4.416;2022-12-13T07:51:06;27.00;;;13.43;;
19879;SDS011;10102;50.828;4.416;2022-12-13T07:53:35;21.30;;;12.77;;
19879;SDS011;10102;50.828;4.416;2022-12-13T07:56:02;25.50;;;13.77;;
19879;SDS011;10102;50.828;4.416;2022-12-13T07:58:28;25.73;;;13.23;;
19879;SDS011;10102;50.828;4.416;2022-12-13T08:00:58;28.13;;;14.67;;
19879;SDS011;10102;50.828;4.416;2022-12-13T08:03:29;30.37;;;13.50;;
19879;SDS011;10102;50.828;4.416;2022-12-13T08:08:27;27.83;;;13.90;;
19879;SDS011;10102;50.828;4.416;2022-12-13T08:10:54;27.67;;;14.47;;
19879;SDS011;10102;50.828;4.416;2022-12-13T08:13:20;26.50;;;13.80;;
19879;SDS011;10102;50.828;4.416;2022-12-13T08:15:45;26.37;;;13.60;;
19879;SDS011;10102;50.828;4.416;2022-12-13T08:18:11;24.27;;;13.77;;
19879;SDS011;10102;50.828;4.416;2022-12-13T08:20:40;33.83;;;14.77;;
19879;SDS011;10102;50.828;4.416;2022-12-13T08:23:05;30.70;;;14.63;;
19879;SDS011;10102;50.828;4.416;2022-12-13T08:25:31;35.67;;;17.03;;
19879;SDS011;10102;50.828;4.416;2022-12-13T08:27:57;36.03;;;15.63;;
19879;SDS011;10102;50.828;4.416;2022-12-13T08:30:23;36.33;;;16.63;;
19879;SDS011;10102;50.828;4.416;2022-12-13T08:32:49;36.73;;;16.43;;
19879;SDS011;10102;50.828;4.416;2022-12-13T08:35:15;31.20;;;15.77;;
19879;SDS011;10102;50.828;4.416;2022-12-13T08:37:41;34.70;;;16.03;;
19879;SDS011;10102;50.828;4.416;2022-12-13T08:40:07;41.43;;;17.43;;
19879;SDS011;10102;50.828;4.416;2022-12-13T08:42:33;36.53;;;16.73;;
19879;SDS011;10102;50.828;4.416;2022-12-13T08:45:00;46.03;;;16.60;;
19879;SDS011;10102;50.828;4.416;2022-12-13T08:47:26;30.17;;;15.50;;
19879;SDS011;10102;50.828;4.416;2022-12-13T08:49:54;40.13;;;17.00;;
19879;SDS011;10102;50.828;4.416;2022-12-13T08:52:23;42.33;;;16.83;;
19879;SDS011;10102;50.828;4.416;2022-12-13T08:54:49;29.97;;;15.47;;
19879;SDS011;10102;50.828;4.416;2022-12-13T08:57:15;35.37;;;15.53;;
19879;SDS011;10102;50.828;4.416;2022-12-13T08:59:41;38.10;;;16.70;;
19879;SDS011;10102;50.828;4.416;2022-12-13T09:02:13;33.83;;;15.80;;
19879;SDS011;10102;50.828;4.416;2022-12-13T09:04:40;34.23;;;15.53;;
19879;SDS011;10102;50.828;4.416;2022-12-13T09:07:06;33.07;;;15.37;;
19879;SDS011;10102;50.828;4.416;2022-12-13T09:09:32;29.00;;;14.63;;
19879;SDS011;10102;50.828;4.416;2022-12-13T09:11:58;33.73;;;15.03;;
19879;SDS011;10102;50.828;4.416;2022-12-13T09:14:24;29.37;;;14.77;;
19879;SDS011;10102;50.828;4.416;2022-12-13T09:16:49;35.73;;;16.17;;
19879;SDS011;10102;50.828;4.416;2022-12-13T09:19:15;30.37;;;15.17;;
19879;SDS011;10102;50.828;4.416;2022-12-13T09:21:40;27.93;;;14.83;;
19879;SDS011;10102;50.828;4.416;2022-12-13T09:24:06;27.77;;;15.57;;
19879;SDS011;10102;50.828;4.416;2022-12-13T09:26:32;44.80;;;15.80;;
19879;SDS011;10102;50.828;4.416;2022-12-13T09:28:57;29.63;;;16.03;;
19879;SDS011;10102;50.828;4.416;2022-12-13T09:31:23;36.73;;;15.67;;
19879;SDS011;10102;50.828;4.416;2022-12-13T09:33:49;31.17;;;16.10;;
19879;SDS011;10102;50.828;4.416;2022-12-13T09:36:16;31.80;;;15.70;;
19879;SDS011;10102;50.828;4.416;2022-12-13T09:38:43;26.47;;;15.73;;
19879;SDS011;10102;50.828;4.416;2022-12-13T09:43:45;30.53;;;16.77;;
19879;SDS011;10102;50.828;4.416;2022-12-13T09:46:34;27.93;;;14.20;;
19879;SDS011;10102;50.828;4.416;2022-12-13T09:49:03;22.80;;;12.80;;
19879;SDS011;10102;50.828;4.416;2022-12-13T09:51:38;24.90;;;13.30;;
19879;SDS011;10102;50.828;4.416;2022-12-13T09:54:04;27.75;;;12.93;;
19879;SDS011;10102;50.828;4.416;2022-12-13T09:56:30;23.83;;;13.00;;
19879;SDS011;10102;50.828;4.416;2022-12-13T09:58:57;22.07;;;12.63;;
19879;SDS011;10102;50.828;4.416;2022-12-13T10:01:23;26.33;;;12.15;;
19879;SDS011;10102;50.828;4.416;2022-12-13T10:03:50;22.40;;;11.98;;
19879;SDS011;10102;50.828;4.416;2022-12-13T10:06:19;30.00;;;11.98;;
19879;SDS011;10102;50.828;4.416;2022-12-13T10:08:53;27.33;;;13.32;;
19879;SDS011;10102;50.828;4.416;2022-12-13T10:11:21;24.45;;;12.90;;
19879;SDS011;10102;50.828;4.416;2022-12-13T10:13:53;26.38;;;12.82;;
19879;SDS011;10102;50.828;4.416;2022-12-13T10:19:08;22.95;;;11.73;;
19879;SDS011;10102;50.828;4.416;2022-12-13T10:22:16;19.67;;;10.88;;
19879;SDS011;10102;50.828;4.416;2022-12-13T10:24:51;24.73;;;11.77;;
19879;SDS011;10102;50.828;4.416;2022-12-13T10:27:25;23.55;;;12.07;;
19879;SDS011;10102;50.828;4.416;2022-12-13T10:32:27;20.05;;;11.15;;
19879;SDS011;10102;50.828;4.416;2022-12-13T10:34:54;22.10;;;11.88;;
19879;SDS011;10102;50.828;4.416;2022-12-13T10:37:29;18.75;;;10.77;;
19879;SDS011;10102;50.828;4.416;2022-12-13T10:39:56;24.70;;;10.45;;
19879;SDS011;10102;50.828;4.416;2022-12-13T10:42:22;19.10;;;10.90;;
19879;SDS011;10102;50.828;4.416;2022-12-13T10:44:48;21.27;;;11.38;;
19879;SDS011;10102;50.828;4.416;2022-12-13T10:47:32;18.90;;;11.48;;
19879;SDS011;10102;50.828;4.416;2022-12-13T10:50:00;20.58;;;11.35;;
19879;SDS011;10102;50.828;4.416;2022-12-13T10:55:06;20.75;;;11.85;;
19879;SDS011;10102;50.828;4.416;2022-12-13T10:58:03;17.70;;;10.93;;
19879;SDS011;10102;50.828;4.416;2022-12-13T11:00:36;19.13;;;11.82;;
19879;SDS011;10102;50.828;4.416;2022-12-13T11:03:03;16.25;;;9.90;;
19879;SDS011;10102;50.828;4.416;2022-12-13T11:05:29;22.23;;;12.07;;
19879;SDS011;10102;50.828;4.416;2022-12-13T11:10:40;17.67;;;10.63;;
19879;SDS011;10102;50.828;4.416;2022-12-13T11:13:06;16.85;;;10.45;;
19879;SDS011;10102;50.828;4.416;2022-12-13T11:15:33;18.05;;;10.98;;
19879;SDS011;10102;50.828;4.416;2022-12-13T11:18:05;19.90;;;12.45;;
19879;SDS011;10102;50.828;4.416;2022-12-13T11:20:48;17.77;;;11.57;;
19879;SDS011;10102;50.828;4.416;2022-12-13T11:26:09;18.42;;;12.00;;
19879;SDS011;10102;50.828;4.416;2022-12-13T11:31:27;17.35;;;11.32;;
19879;SDS011;10102;50.828;4.416;2022-12-13T11:39:25;21.00;;;12.68;;
19879;SDS011;10102;50.828;4.416;2022-12-13T11:47:27;21.23;;;12.23;;
19879;SDS011;10102;50.828;4.416;2022-12-13T11:50:05;18.50;;;12.02;;
19879;SDS011;10102;50.828;4.416;2022-12-13T11:52:47;19.67;;;11.13;;
19879;SDS011;10102;50.828;4.416;2022-12-13T11:55:23;19.08;;;11.82;;
19879;SDS011;10102;50.828;4.416;2022-12-13T12:00:34;19.42;;;11.05;;
19879;SDS011;10102;50.828;4.416;2022-12-13T12:05:39;25.15;;;10.38;;
19879;SDS011;10102;50.828;4.416;2022-12-13T12:08:36;21.23;;;10.13;;
19879;SDS011;10102;50.828;4.416;2022-12-13T12:11:28;19.10;;;11.48;;
19879;SDS011;10102;50.828;4.416;2022-12-13T12:14:04;15.65;;;9.40;;
19879;SDS011;10102;50.828;4.416;2022-12-13T12:19:19;19.60;;;10.90;;
19879;SDS011;10102;50.828;4.416;2022-12-13T12:55:29;19.98;;;10.43;;
19879;SDS011;10102;50.828;4.416;2022-12-13T13:01:21;18.63;;;9.43;;
19879;SDS011;10102;50.828;4.416;2022-12-13T13:04:11;19.83;;;10.15;;
19879;SDS011;10102;50.828;4.416;2022-12-13T13:06:40;19.88;;;11.35;;
19879;SDS011;10102;50.828;4.416;2022-12-13T13:09:10;17.05;;;10.63;;
19879;SDS011;10102;50.828;4.416;2022-12-13T13:11:41;20.55;;;10.27;;
19879;SDS011;10102;50.828;4.416;2022-12-13T13:16:56;16.30;;;9.70;;
19879;SDS011;10102;50.828;4.416;2022-12-13T13:21:58;17.40;;;10.48;;
19879;SDS011;10102;50.828;4.416;2022-12-13T13:24:25;16.92;;;10.25;;
19879;SDS011;10102;50.828;4.416;2022-12-13T13:26:53;19.30;;;10.77;;
19879;SDS011;10102;50.828;4.416;2022-12-13T13:34:22;21.00;;;10.75;;
19879;SDS011;10102;50.828;4.416;2022-12-13T13:36:59;23.75;;;12.13;;
19879;SDS011;10102;50.828;4.416;2022-12-13T13:42:07;21.42;;;11.65;;
19879;SDS011;10102;50.828;4.416;2022-12-13T14:21:34;26.88;;;11.48;;
19879;SDS011;10102;50.828;4.416;2022-12-13T14:29:30;24.23;;;12.75;;
19879;SDS011;10102;50.828;4.416;2022-12-13T14:31:58;23.17;;;12.32;;
19879;SDS011;10102;50.828;4.416;2022-12-13T14:34:27;30.30;;;14.48;;
19879;SDS011;10102;50.828;4.416;2022-12-13T14:39:20;25.27;;;13.38;;
19879;SDS011;10102;50.828;4.416;2022-12-13T14:41:48;25.85;;;13.07;;
19879;SDS011;10102;50.828;4.416;2022-12-13T14:44:20;22.45;;;12.80;;
19879;SDS011;10102;50.828;4.416;2022-12-13T14:46:57;43.50;;;13.18;;
19879;SDS011;10102;50.828;4.416;2022-12-13T14:49:29;34.78;;;13.75;;
19879;SDS011;10102;50.828;4.416;2022-12-13T14:52:00;29.80;;;13.30;;
19879;SDS011;10102;50.828;4.416;2022-12-13T14:54:39;29.50;;;12.98;;
19879;SDS011;10102;50.828;4.416;2022-12-13T14:57:14;30.42;;;13.88;;
19879;SDS011;10102;50.828;4.416;2022-12-13T14:59:49;26.67;;;13.45;;
19879;SDS011;10102;50.828;4.416;2022-12-13T15:02:21;28.40;;;13.95;;
19879;SDS011;10102;50.828;4.416;2022-12-13T15:04:59;27.20;;;12.95;;
19879;SDS011;10102;50.828;4.416;2022-12-13T15:09:57;27.25;;;12.88;;
19879;SDS011;10102;50.828;4.416;2022-12-13T15:12:25;26.00;;;13.35;;
19879;SDS011;10102;50.828;4.416;2022-12-13T15:15:02;31.95;;;14.90;;
19879;SDS011;10102;50.828;4.416;2022-12-13T15:17:37;31.50;;;13.88;;
19879;SDS011;10102;50.828;4.416;2022-12-13T15:22:56;26.55;;;13.85;;
19879;SDS011;10102;50.828;4.416;2022-12-13T15:25:23;32.95;;;15.10;;
19879;SDS011;10102;50.828;4.416;2022-12-13T15:27:48;30.52;;;14.95;;
19879;SDS011;10102;50.828;4.416;2022-12-13T15:30:16;32.13;;;14.05;;
19879;SDS011;10102;50.828;4.416;2022-12-13T15:33:00;31.40;;;14.40;;
19879;SDS011;10102;50.828;4.416;2022-12-13T15:35:34;33.10;;;14.95;;
19879;SDS011;10102;50.828;4.416;2022-12-13T15:38:02;26.65;;;13.90;;
19879;SDS011;10102;50.828;4.416;2022-12-13T15:40:29;27.05;;;14.10;;
19879;SDS011;10102;50.828;4.416;2022-12-13T15:42:55;38.28;;;16.13;;
19879;SDS011;10102;50.828;4.416;2022-12-13T15:45:23;32.75;;;15.60;;
19879;SDS011;10102;50.828;4.416;2022-12-13T15:47:51;33.63;;;16.20;;
19879;SDS011;10102;50.828;4.416;2022-12-13T15:50:31;30.95;;;14.98;;
19879;SDS011;10102;50.828;4.416;2022-12-13T15:53:01;31.45;;;15.75;;
19879;SDS011;10102;50.828;4.416;2022-12-13T15:55:41;28.40;;;15.30;;
19879;SDS011;10102;50.828;4.416;2022-12-13T15:58:30;31.77;;;14.90;;
19879;SDS011;10102;50.828;4.416;2022-12-13T16:00:57;34.53;;;15.88;;
19879;SDS011;10102;50.828;4.416;2022-12-13T16:03:29;31.50;;;15.13;;
19879;SDS011;10102;50.828;4.416;2022-12-13T16:06:07;32.35;;;16.50;;
19879;SDS011;10102;50.828;4.416;2022-12-13T16:08:37;38.03;;;16.90;;
19879;SDS011;10102;50.828;4.416;2022-12-13T16:11:04;36.35;;;17.00;;
19879;SDS011;10102;50.828;4.416;2022-12-13T16:13:33;36.33;;;16.70;;
19879;SDS011;10102;50.828;4.416;2022-12-13T16:16:20;32.10;;;17.58;;
19879;SDS011;10102;50.828;4.416;2022-12-13T16:18:55;38.03;;;18.98;;
19879;SDS011;10102;50.828;4.416;2022-12-13T16:21:23;34.53;;;16.67;;
19879;SDS011;10102;50.828;4.416;2022-12-13T16:23:49;38.85;;;18.58;;
19879;SDS011;10102;50.828;4.416;2022-12-13T16:26:24;40.15;;;20.15;;
19879;SDS011;10102;50.828;4.416;2022-12-13T16:28:52;33.38;;;18.23;;
19879;SDS011;10102;50.828;4.416;2022-12-13T16:31:22;32.70;;;17.25;;
19879;SDS011;10102;50.828;4.416;2022-12-13T16:33:49;36.03;;;18.90;;
19879;SDS011;10102;50.828;4.416;2022-12-13T16:36:15;33.42;;;17.75;;
19879;SDS011;10102;50.828;4.416;2022-12-13T16:38:41;39.20;;;19.05;;
19879;SDS011;10102;50.828;4.416;2022-12-13T16:41:07;40.95;;;19.02;;
19879;SDS011;10102;50.828;4.416;2022-12-13T16:43:34;44.70;;;20.02;;
19879;SDS011;10102;50.828;4.416;2022-12-13T16:46:03;40.47;;;19.42;;
19879;SDS011;10102;50.828;4.416;2022-12-13T16:48:30;45.90;;;19.70;;
19879;SDS011;10102;50.828;4.416;2022-12-13T16:50:55;42.45;;;19.52;;
19879;SDS011;10102;50.828;4.416;2022-12-13T16:53:21;39.25;;;17.70;;
19879;SDS011;10102;50.828;4.416;2022-12-13T16:55:48;42.70;;;19.48;;
19879;SDS011;10102;50.828;4.416;2022-12-13T16:58:15;40.85;;;17.50;;
19879;SDS011;10102;50.828;4.416;2022-12-13T17:00:42;41.83;;;19.75;;
19879;SDS011;10102;50.828;4.416;2022-12-13T17:03:09;37.13;;;18.67;;
19879;SDS011;10102;50.828;4.416;2022-12-13T17:05:36;41.38;;;18.60;;
19879;SDS011;10102;50.828;4.416;2022-12-13T17:08:03;40.35;;;18.77;;
19879;SDS011;10102;50.828;4.416;2022-12-13T17:10:29;38.38;;;18.50;;
19879;SDS011;10102;50.828;4.416;2022-12-13T17:12:55;34.85;;;18.00;;
19879;SDS011;10102;50.828;4.416;2022-12-13T17:15:21;41.00;;;18.20;;
19879;SDS011;10102;50.828;4.416;2022-12-13T17:17:46;37.35;;;18.50;;
19879;SDS011;10102;50.828;4.416;2022-12-13T17:20:14;35.72;;;18.55;;
19879;SDS011;10102;50.828;4.416;2022-12-13T17:22:40;37.83;;;17.95;;